TimeHST,TemperatureF,Dew PointF,Humidity,Sea Level PressureIn,VisibilityMPH,Wind Direction,Wind SpeedMPH,Gust SpeedMPH,PrecipitationIn,Events,Conditions,WindDirDegrees,DateUTC
12:57 AM,73.4,66.0,78,30.06,10.0,East,6.9,-,N/A,,Mostly Cloudy,100,2012-12-27 10:57:00
1:57 AM,73.4,66.0,78,30.05,10.0,East,6.9,-,N/A,,Mostly Cloudy,100,2012-12-27 11:57:00
2:45 AM,73.4,64.4,73,30.05,6.2,East,5.8,-,N/A,,Mostly Cloudy,80,2012-12-27 12:45:00
2:57 AM,73.4,64.9,75,30.03,10.0,East,6.9,-,N/A,,Scattered Clouds,100,2012-12-27 12:57:00
3:30 AM,73.4,64.4,73,30.03,6.2,East,6.9,-,N/A,,Mostly Cloudy,90,2012-12-27 13:30:00
3:57 AM,73.4,64.0,72,30.01,10.0,East,6.9,-,N/A,,Mostly Cloudy,80,2012-12-27 13:57:00
4:57 AM,71.6,64.9,79,30.00,10.0,East,9.2,-,0.00,Rain,Light Rain,90,2012-12-27 14:57:00
5:57 AM,71.6,64.9,79,30.00,10.0,East,8.1,20.7,0.00,,Scattered Clouds,100,2012-12-27 15:57:00
6:57 AM,73.4,64.0,72,30.01,10.0,Variable,6.9,17.3,N/A,,Mostly Cloudy,0,2012-12-27 16:57:00
7:57 AM,73.4,64.9,75,30.02,10.0,Variable,5.8,-,N/A,,Scattered Clouds,0,2012-12-27 17:57:00
8:57 AM,73.4,64.9,75,30.03,10.0,East,6.9,-,N/A,,Scattered Clouds,80,2012-12-27 18:57:00
9:04 AM,75.2,64.4,69,30.04,6.2,East,9.2,18.4,N/A,,Mostly Cloudy,90,2012-12-27 19:04:00
9:31 AM,75.2,64.4,69,30.05,6.2,East,10.4,18.4,N/A,,Scattered Clouds,90,2012-12-27 19:31:00
9:57 AM,75.7,64.9,69,30.03,10.0,East,9.2,17.3,N/A,,Scattered Clouds,80,2012-12-27 19:57:00
10:57 AM,77.7,64.9,65,30.02,10.0,East,11.5,18.4,N/A,,Scattered Clouds,90,2012-12-27 20:57:00
11:57 AM,77.7,64.0,63,30.01,10.0,ESE,11.5,-,N/A,,Partly Cloudy,110,2012-12-27 21:57:00
12:44 PM,78.8,64.4,61,29.99,6.2,East,9.2,17.3,N/A,,Mostly Cloudy,80,2012-12-27 22:44:00
12:57 PM,78.3,64.0,61,29.97,10.0,East,10.4,16.1,N/A,,Mostly Cloudy,100,2012-12-27 22:57:00
1:06 PM,78.8,64.4,61,29.99,6.2,East,10.4,-,N/A,,Scattered Clouds,80,2012-12-27 23:06:00
1:57 PM,79.5,64.9,61,29.95,10.0,ENE,8.1,-,N/A,,Scattered Clouds,70,2012-12-27 23:57:00
2:57 PM,79.9,64.0,58,29.94,10.0,ESE,6.9,-,N/A,,Scattered Clouds,120,2012-12-28 00:57:00
3:57 PM,79.5,63.0,57,29.94,10.0,East,5.8,-,N/A,,Scattered Clouds,80,2012-12-28 01:57:00
4:57 PM,79.3,64.0,59,29.95,10.0,East,3.5,-,N/A,,Partly Cloudy,90,2012-12-28 02:57:00
5:57 PM,73.4,63.0,70,29.96,10.0,East,6.9,-,N/A,,Scattered Clouds,80,2012-12-28 03:57:00
6:57 PM,77.7,64.0,63,29.98,10.0,East,6.9,-,N/A,,Scattered Clouds,80,2012-12-28 04:57:00
7:57 PM,77.0,64.9,66,29.99,10.0,East,5.8,-,N/A,,Mostly Cloudy,90,2012-12-28 05:57:00
8:57 PM,75.2,64.0,68,29.99,10.0,East,4.6,-,N/A,,Clear,100,2012-12-28 06:57:00
9:57 PM,75.9,64.0,67,29.99,10.0,East,6.9,-,N/A,,Clear,90,2012-12-28 07:57:00
10:57 PM,75.7,64.9,69,29.99,10.0,ESE,5.8,-,N/A,,Clear,110,2012-12-28 08:57:00
11:57 PM,72.3,64.9,78,29.98,10.0,East,4.6,-,N/A,,Partly Cloudy,90,2012-12-28 09:57:00